PILOTS ONLINE: 337    ATC ONLINE: 84

KFHU

Sierra Vista Municipal Libby Army Air Field

Location

IATA FHU
City Fort Huachuca Sierra Vista
Country  United States
Latitude 31° 35' 18" N
Longitude 110° 20' 38" W
Elevation 4719 ft
Type Medium Airport

Map

Weather

METAR
2014/09/02 00:56
KFHU 020056Z AUTO 29007KT 10SM CLR 32/04 A3004 RMK AO2 SLP104 T03220044 $
TAF
2014/08/30 03:05
TAF KFHU 3003/3109 24006KT 9999 FEW090 QNH3004INS 
      BECMG 3020/3021 25009KT 9999 FEW100 QNH3002INS 
      BECMG 3102/3103 VRB06KT 9999 SCT150 QNH3005INS TX33/3023Z TN21/3013Z LAST NO 
      AMDS AFT 3006 NEXT 0203

Runways

03/21 4285 ft / 75 ft
08/26 12001 ft / 150 ft
12/30 5366 ft / 100 ft

Outbound flights

Callsign Flying to Pilot ATD/STD ETA Aircraft

Inbound flights

Callsign Flying from Pilot ATD ETA Aircraft